createdAt,value
2022-10-18T00:04:13.209Z,16.32
2022-10-18T00:09:15.081Z,16.31
2022-10-18T00:14:17.091Z,16.29
2022-10-18T00:19:18.933Z,16.28
2022-10-18T00:24:20.781Z,16.27
2022-10-18T00:29:22.561Z,16.26
2022-10-18T00:34:24.491Z,16.25
2022-10-18T00:39:26.402Z,16.24
2022-10-18T00:44:28.374Z,16.25
2022-10-18T00:49:38.163Z,16.24
2022-10-18T00:54:44.169Z,16.26
2022-10-18T00:59:47.176Z,16.27
2022-10-18T01:04:49.319Z,16.29
2022-10-18T01:10:38.063Z,16.30
2022-10-18T01:16:03.901Z,16.33
2022-10-18T01:21:37.833Z,16.38
2022-10-18T01:27:00.319Z,16.37
2022-10-18T01:32:13.332Z,16.38
2022-10-18T01:37:18.330Z,16.40
2022-10-18T01:42:21.625Z,16.38
2022-10-18T01:47:23.961Z,16.34
2022-10-18T01:52:25.853Z,16.29
2022-10-18T01:57:42.403Z,16.27
2022-10-18T02:02:50.192Z,16.27
2022-10-18T02:08:23.585Z,16.29
2022-10-18T02:13:35.470Z,16.28
2022-10-18T02:18:42.628Z,16.32
2022-10-18T02:23:46.542Z,16.31
2022-10-18T02:28:48.441Z,16.30
2022-10-18T02:34:18.492Z,16.28
2022-10-18T02:39:25.745Z,16.27
2022-10-18T02:44:27.544Z,16.25
2022-10-18T02:49:29.484Z,16.23
2022-10-18T02:54:31.291Z,16.20
2022-10-18T02:59:33.786Z,16.15
2022-10-18T03:04:35.602Z,16.12
2022-10-18T03:09:37.418Z,16.08
2022-10-18T03:14:39.228Z,16.04
2022-10-18T03:19:41.351Z,16.00
2022-10-18T03:24:43.182Z,15.96
2022-10-18T03:29:44.930Z,15.93
2022-10-18T03:34:46.734Z,15.90
2022-10-18T03:39:48.537Z,15.87
2022-10-18T03:44:50.303Z,15.85
2022-10-18T03:49:54.766Z,15.84
2022-10-18T03:54:59.044Z,15.88
2022-10-18T04:00:00.954Z,15.90
2022-10-18T04:05:02.936Z,15.95
2022-10-18T04:10:05.067Z,15.99
2022-10-18T04:15:07.702Z,16.05
2022-10-18T04:20:10.091Z,16.11
2022-10-18T04:25:11.982Z,16.16
2022-10-18T04:30:14.093Z,16.19
2022-10-18T04:35:16.038Z,16.23
2022-10-18T04:40:18.005Z,16.20
2022-10-18T04:45:20.142Z,16.21
2022-10-18T04:50:22.061Z,16.22
2022-10-18T04:55:24.786Z,16.23
2022-10-18T05:00:26.665Z,16.24
2022-10-18T05:05:49.890Z,16.26
2022-10-18T05:10:50.605Z,16.26
2022-10-18T05:15:52.473Z,16.22
2022-10-18T05:20:54.411Z,16.20
2022-10-18T05:26:01.613Z,16.22
2022-10-18T05:31:07.850Z,16.21
2022-10-18T05:36:11.007Z,16.22
2022-10-18T05:41:13.232Z,16.22
2022-10-18T05:46:15.831Z,16.24
2022-10-18T05:51:19.319Z,16.24
2022-10-18T05:56:21.204Z,16.24
2022-10-18T06:01:23.251Z,16.22
2022-10-18T06:06:25.130Z,16.18
2022-10-18T06:11:27.203Z,16.17
2022-10-18T06:16:32.475Z,16.18
2022-10-18T06:21:34.981Z,16.24
2022-10-18T06:26:39.853Z,16.29
2022-10-18T06:31:44.533Z,16.33
2022-10-18T06:36:46.385Z,16.37
2022-10-18T06:41:48.178Z,16.38
2022-10-18T06:46:59.397Z,16.40
2022-10-18T06:52:01.296Z,16.41
2022-10-18T06:57:03.357Z,16.44
2022-10-18T07:02:05.169Z,16.49
2022-10-18T07:07:07.017Z,16.54
2022-10-18T07:12:08.889Z,16.58
2022-10-18T07:17:10.759Z,16.62
2022-10-18T07:22:12.604Z,16.65
2022-10-18T07:27:14.436Z,16.69
2022-10-18T07:32:16.233Z,16.73
2022-10-18T07:37:18.172Z,16.82
2022-10-18T07:42:20.026Z,16.91
2022-10-18T07:47:21.759Z,16.95
2022-10-18T07:52:23.527Z,17.02
2022-10-18T07:57:25.491Z,17.06
2022-10-18T08:02:27.579Z,17.11
2022-10-18T08:07:29.539Z,17.18
2022-10-18T08:12:31.651Z,17.23
2022-10-18T08:17:34.586Z,17.18
2022-10-18T08:22:36.895Z,17.11
2022-10-18T08:27:39.078Z,17.08
2022-10-18T08:32:40.965Z,17.06
2022-10-18T08:37:42.810Z,17.03
2022-10-18T08:42:54.996Z,17.03
2022-10-18T08:47:58.301Z,17.10
2022-10-18T08:53:18.115Z,17.13
2022-10-18T08:58:23.428Z,17.06
2022-10-18T09:04:03.121Z,17.03
2022-10-18T09:09:17.200Z,17.02
2022-10-18T09:15:04.161Z,17.05
2022-10-18T09:20:17.988Z,17.03
2022-10-18T09:25:24.569Z,17.02
2022-10-18T09:30:58.757Z,17.08
2022-10-18T09:36:05.858Z,17.19
2022-10-18T09:41:15.168Z,17.25
2022-10-18T09:46:20.697Z,17.25
2022-10-18T09:51:28.336Z,17.26
2022-10-18T09:56:31.990Z,17.30
2022-10-18T10:01:34.035Z,17.30
2022-10-18T10:06:39.298Z,17.32
2022-10-18T10:11:51.844Z,17.34
2022-10-18T10:17:03.590Z,17.43
2022-10-18T10:22:09.608Z,17.58
2022-10-18T10:27:32.722Z,17.71
2022-10-18T10:32:50.615Z,17.80
2022-10-18T10:37:54.328Z,17.79
2022-10-18T10:43:18.130Z,17.78
2022-10-18T10:48:33.465Z,17.71
2022-10-18T10:53:54.034Z,17.62
2022-10-18T10:59:01.633Z,17.43
2022-10-18T11:04:22.941Z,17.27
2022-10-18T11:09:32.204Z,17.09
2022-10-18T11:14:41.954Z,16.99
2022-10-18T11:19:50.153Z,16.95
2022-10-18T11:24:52.070Z,16.93
2022-10-18T11:30:29.033Z,16.92
2022-10-18T11:35:50.476Z,16.88
2022-10-18T11:41:40.798Z,16.85
2022-10-18T11:47:17.119Z,16.84
2022-10-18T11:52:33.769Z,16.83
2022-10-18T11:57:54.182Z,16.84
2022-10-18T12:03:24.148Z,16.84
2022-10-18T12:08:36.533Z,16.80
2022-10-18T12:13:59.385Z,16.80
2022-10-18T12:19:11.813Z,16.80
2022-10-18T12:24:21.641Z,16.77
2022-10-18T12:29:37.452Z,16.75
2022-10-18T12:34:51.691Z,16.76
2022-10-18T12:40:12.154Z,16.75
2022-10-18T12:45:35.573Z,16.75
2022-10-18T12:50:43.632Z,16.75
2022-10-18T12:55:51.957Z,16.78
2022-10-18T13:00:57.288Z,16.76
2022-10-18T13:06:02.981Z,16.76
2022-10-18T13:11:08.226Z,16.76
2022-10-18T13:16:25.286Z,16.75
2022-10-18T13:21:48.548Z,16.74
2022-10-18T13:27:18.030Z,16.71
2022-10-18T13:32:29.559Z,16.70
2022-10-18T13:37:32.303Z,16.72
2022-10-18T13:42:34.598Z,16.72
2022-10-18T13:47:38.370Z,16.70
2022-10-18T13:53:24.671Z,16.71
2022-10-18T13:58:49.187Z,16.71
2022-10-18T14:04:23.233Z,16.72
2022-10-18T14:09:45.335Z,16.73
2022-10-18T14:14:56.723Z,16.76
2022-10-18T14:20:14.601Z,16.80
2022-10-18T14:25:20.806Z,16.88
2022-10-18T14:30:23.062Z,16.90
2022-10-18T14:35:32.521Z,16.91
2022-10-18T14:40:40.574Z,16.94
2022-10-18T14:45:43.130Z,16.94
2022-10-18T14:50:47.434Z,16.95
2022-10-18T14:56:00.866Z,16.89
2022-10-18T15:01:03.163Z,16.82
2022-10-18T15:06:07.773Z,16.75
2022-10-18T15:11:14.266Z,16.72
2022-10-18T15:16:18.943Z,16.71
2022-10-18T15:21:24.751Z,16.72
2022-10-18T15:26:30.461Z,16.71
2022-10-18T15:31:35.948Z,16.71
2022-10-18T15:36:38.128Z,16.69
2022-10-18T15:41:45.441Z,16.67
2022-10-18T15:46:47.917Z,16.64
2022-10-18T15:51:51.376Z,16.61
2022-10-18T15:56:53.185Z,16.58
2022-10-18T16:01:55.376Z,16.53
2022-10-18T16:06:58.169Z,16.52
2022-10-18T16:11:59.982Z,16.49
2022-10-18T16:17:05.105Z,16.44
2022-10-18T16:22:07.206Z,16.39
2022-10-18T16:27:10.249Z,16.36
2022-10-18T16:32:11.991Z,16.34
2022-10-18T16:37:14.193Z,16.33
2022-10-18T16:42:16.035Z,16.31
2022-10-18T16:47:18.092Z,16.28
2022-10-18T16:52:19.902Z,16.25
2022-10-18T16:57:21.747Z,16.22
2022-10-18T17:02:23.568Z,16.18
2022-10-18T17:07:25.743Z,16.17
2022-10-18T17:12:27.574Z,16.15
2022-10-18T17:17:29.621Z,16.14
2022-10-18T17:22:31.892Z,16.11
2022-10-18T17:27:33.793Z,16.11
2022-10-18T17:32:35.723Z,16.10
2022-10-18T17:37:42.718Z,16.08
2022-10-18T17:42:47.686Z,16.05
2022-10-18T17:47:49.589Z,16.00
2022-10-18T17:52:51.378Z,15.94
2022-10-18T17:57:53.209Z,15.87
2022-10-18T18:03:01.280Z,15.82
2022-10-18T18:08:04.369Z,15.79
2022-10-18T18:13:06.491Z,15.78
2022-10-18T18:18:08.235Z,15.79
2022-10-18T18:23:10.061Z,15.82
2022-10-18T18:28:11.867Z,15.84
2022-10-18T18:33:13.672Z,15.85
2022-10-18T18:38:15.516Z,15.85
2022-10-18T18:43:24.560Z,15.86
2022-10-18T18:48:28.153Z,15.85
2022-10-18T18:53:30.663Z,15.84
2022-10-18T18:58:34.835Z,15.84
2022-10-18T19:03:38.789Z,15.84
2022-10-18T19:08:40.637Z,15.85
2022-10-18T19:13:42.761Z,15.84
2022-10-18T19:18:58.041Z,15.83
2022-10-18T19:24:00.462Z,15.82
2022-10-18T19:29:16.351Z,15.81
2022-10-18T19:34:19.666Z,15.80
2022-10-18T19:39:22.874Z,15.76
2022-10-18T19:44:28.827Z,15.72
2022-10-18T19:49:30.773Z,15.67
2022-10-18T19:54:32.694Z,15.57
2022-10-18T19:59:36.232Z,15.49
2022-10-18T20:04:38.311Z,15.38
2022-10-18T20:09:40.403Z,15.31
2022-10-18T20:14:42.259Z,15.26
2022-10-18T20:19:44.208Z,15.20
2022-10-18T20:24:46.066Z,15.15
2022-10-18T20:29:47.799Z,15.09
2022-10-18T20:34:49.553Z,15.03
2022-10-18T20:39:51.329Z,15.01
2022-10-18T20:44:53.394Z,14.96
2022-10-18T20:49:55.141Z,14.89
2022-10-18T20:54:56.875Z,14.89
2022-10-18T20:59:58.863Z,14.88
2022-10-18T21:05:00.554Z,14.87
2022-10-18T21:10:02.282Z,14.88
2022-10-18T21:15:04.363Z,14.85
2022-10-18T21:20:07.055Z,14.81
2022-10-18T21:25:10.365Z,14.82
2022-10-18T21:35:19.579Z,14.90
2022-10-18T21:40:21.244Z,14.92
2022-10-18T21:45:23.000Z,14.96
2022-10-18T21:50:24.723Z,14.98
2022-10-18T21:55:26.474Z,15.02
2022-10-18T22:00:28.200Z,15.08
2022-10-18T22:05:30.042Z,15.14
2022-10-18T22:10:32.318Z,15.19
2022-10-18T22:15:34.055Z,15.22
2022-10-18T22:20:35.899Z,15.25
2022-10-18T22:25:37.537Z,15.27
2022-10-18T22:30:40.845Z,15.30
2022-10-18T22:35:42.548Z,15.31
2022-10-18T22:40:45.043Z,15.31
2022-10-18T22:45:46.806Z,15.31
2022-10-18T22:50:51.661Z,15.28
2022-10-18T22:55:54.085Z,15.26
2022-10-18T23:01:08.118Z,15.25
2022-10-18T23:06:27.156Z,15.23
2022-10-18T23:11:29.260Z,15.18
2022-10-18T23:16:31.247Z,15.13
2022-10-18T23:21:34.370Z,15.09
2022-10-18T23:26:36.089Z,15.02
2022-10-18T23:31:37.906Z,14.96
2022-10-18T23:36:39.730Z,14.92
2022-10-18T23:41:41.526Z,14.87
2022-10-18T23:46:43.218Z,14.87
2022-10-18T23:51:44.975Z,14.86
2022-10-18T23:56:46.705Z,14.85
